Flagstaff Pulliam Airport
KFLG : now visible

Airfield :











YOU CAN JOIN US ON...

 
LOGIN :

Register | Disclaimer

   EN    FR    IT 

 









Legend :    VFR   Marginal VFR   IFR   Intensive IFR   Very Intensive IFR
Visi :
Ceiling :
>= 8 km
>= 3000ft
5 to 8 km
1000 to 3000 ft
1500m to 5 km
500 to 1000 ft
800 to 1500m
200 to 500 ft
< 800m
< 200 ft
Symbols :   Thunderstorms  Fog  Heavy snow  Heavy precipitations  Wind > 20 kt






- Airport Elevation : 7014 ft
- IATA code : FLG


KFLG - Flagstaff Pulliam

CURRENT METAR :
  • 190657Z AUTO 09003KT 10SM OVC100 01/M11 A2988 RMK AO2 SLP078 T00111111 401001072 TSNO

EXPIRED METARs :
  • 190557Z AUTO 10006KT 10SM OVC085 M01/M12 A2989 RMK AO2 SLP088 T10111117 10061 21022 56002 TSNO
  • 190457Z AUTO 00000KT 10SM SCT090 M02/M12 A2989 RMK AO2 SLP101 T10221122 TSNO

TAF KFLG
Valid from the 19 at 06:00 until the 20 at 06:00 UTC


190539Z 1906/2006 VRB05KT P6SM SCT060 OVC090
FM191200 VRB06KT P6SM VCSH SCT040 OVC070
TEMPO 1912/1915 BKN040
FM191500 07008G14KT P6SM VCSH SCT008 BKN035 OVC600
FM191800 08011G18KT 3/4SM -SHSN BR SCT003 BKN015 OVC035
FM192100 07010G17KT 3SM -SHSN BR SCT003 BKN015 OVC035
FM200500 08010G18KT P6SM SCT015 BKN070 WS020/12045KT
PROB30 2005/2006 5SM -SHSN BR BKN015
KZAB FIR / North America



MET'MAP, your aeronautical weather chart ! - Copyright ORBIFLY December 2007 - Disclaimer

ORBIFLY MET'MAP TEAM :

Programming & Development : Alexandra Zaïnal
Concept & original design : Baudouin d'Aumeries
Assistance for programming : Marc-Olivier Méhu
Technical & hardware support : Manuel Goepfert

Contact : metmap@orbifly.com




SOURCES & CREDITS :

   NOAA       Earth
Advisory